sensor_id;sensor_type;location;lat;lon;timestamp;P1;durP1;ratioP1;P2;durP2;ratioP2
21804;SDS011;11064;47.102;15.452;2023-08-24T04:01:35;17.73;;;14.50;;
21804;SDS011;11064;47.102;15.452;2023-08-24T04:04:01;17.00;;;13.70;;
21804;SDS011;11064;47.102;15.452;2023-08-24T04:06:27;20.10;;;14.52;;
21804;SDS011;11064;47.102;15.452;2023-08-24T04:08:52;19.95;;;13.93;;
21804;SDS011;11064;47.102;15.452;2023-08-24T04:11:18;18.63;;;14.85;;
21804;SDS011;11064;47.102;15.452;2023-08-24T04:13:44;19.67;;;15.25;;
21804;SDS011;11064;47.102;15.452;2023-08-24T04:16:10;20.85;;;15.73;;
21804;SDS011;11064;47.102;15.452;2023-08-24T04:18:35;20.02;;;15.65;;
21804;SDS011;11064;47.102;15.452;2023-08-24T04:21:01;18.70;;;15.10;;
21804;SDS011;11064;47.102;15.452;2023-08-24T04:23:27;18.05;;;14.63;;
21804;SDS011;11064;47.102;15.452;2023-08-24T04:25:53;18.00;;;15.45;;
21804;SDS011;11064;47.102;15.452;2023-08-24T04:28:19;18.88;;;14.75;;
21804;SDS011;11064;47.102;15.452;2023-08-24T04:30:49;19.77;;;14.60;;
21804;SDS011;11064;47.102;15.452;2023-08-24T04:33:19;18.35;;;13.52;;
21804;SDS011;11064;47.102;15.452;2023-08-24T04:35:48;19.20;;;14.23;;
21804;SDS011;11064;47.102;15.452;2023-08-24T04:38:15;17.50;;;13.70;;
21804;SDS011;11064;47.102;15.452;2023-08-24T04:40:52;19.00;;;14.63;;
21804;SDS011;11064;47.102;15.452;2023-08-24T04:43:19;19.27;;;13.77;;
21804;SDS011;11064;47.102;15.452;2023-08-24T04:45:50;16.05;;;13.27;;
21804;SDS011;11064;47.102;15.452;2023-08-24T04:48:20;16.52;;;13.20;;
21804;SDS011;11064;47.102;15.452;2023-08-24T04:50:47;17.17;;;13.38;;
21804;SDS011;11064;47.102;15.452;2023-08-24T04:53:15;15.18;;;12.27;;
21804;SDS011;11064;47.102;15.452;2023-08-24T04:55:43;15.90;;;12.38;;
21804;SDS011;11064;47.102;15.452;2023-08-24T04:58:09;17.70;;;11.93;;
21804;SDS011;11064;47.102;15.452;2023-08-24T05:00:36;16.90;;;11.90;;
21804;SDS011;11064;47.102;15.452;2023-08-24T05:03:03;16.23;;;12.07;;
21804;SDS011;11064;47.102;15.452;2023-08-24T05:05:30;19.23;;;11.88;;
21804;SDS011;11064;47.102;15.452;2023-08-24T05:07:57;16.58;;;12.55;;
21804;SDS011;11064;47.102;15.452;2023-08-24T05:10:24;19.08;;;12.60;;
21804;SDS011;11064;47.102;15.452;2023-08-24T05:12:50;17.35;;;12.20;;
21804;SDS011;11064;47.102;15.452;2023-08-24T05:15:16;12.90;;;11.57;;
21804;SDS011;11064;47.102;15.452;2023-08-24T05:17:42;17.42;;;11.65;;
21804;SDS011;11064;47.102;15.452;2023-08-24T05:20:08;18.52;;;12.20;;
21804;SDS011;11064;47.102;15.452;2023-08-24T05:22:36;17.45;;;11.65;;
21804;SDS011;11064;47.102;15.452;2023-08-24T05:25:02;15.73;;;11.20;;
21804;SDS011;11064;47.102;15.452;2023-08-24T05:27:28;17.17;;;11.77;;
21804;SDS011;11064;47.102;15.452;2023-08-24T05:29:54;16.30;;;11.32;;
21804;SDS011;11064;47.102;15.452;2023-08-24T05:32:20;12.45;;;11.05;;
21804;SDS011;11064;47.102;15.452;2023-08-24T05:34:45;18.95;;;11.10;;
21804;SDS011;11064;47.102;15.452;2023-08-24T05:37:12;16.63;;;11.15;;
21804;SDS011;11064;47.102;15.452;2023-08-24T05:39:37;15.57;;;11.20;;
21804;SDS011;11064;47.102;15.452;2023-08-24T05:42:03;15.18;;;10.65;;
21804;SDS011;11064;47.102;15.452;2023-08-24T05:44:30;15.73;;;10.95;;
21804;SDS011;11064;47.102;15.452;2023-08-24T05:46:56;14.93;;;10.18;;
21804;SDS011;11064;47.102;15.452;2023-08-24T05:49:22;17.88;;;10.68;;
21804;SDS011;11064;47.102;15.452;2023-08-24T05:51:49;16.40;;;10.60;;
21804;SDS011;11064;47.102;15.452;2023-08-24T05:54:16;15.73;;;10.38;;
21804;SDS011;11064;47.102;15.452;2023-08-24T05:56:45;16.95;;;10.52;;
21804;SDS011;11064;47.102;15.452;2023-08-24T05:59:11;13.00;;;10.13;;
21804;SDS011;11064;47.102;15.452;2023-08-24T06:01:38;17.13;;;10.65;;
21804;SDS011;11064;47.102;15.452;2023-08-24T06:04:04;13.70;;;10.60;;
21804;SDS011;11064;47.102;15.452;2023-08-24T06:06:30;18.25;;;10.45;;
21804;SDS011;11064;47.102;15.452;2023-08-24T06:08:56;15.57;;;10.68;;
21804;SDS011;11064;47.102;15.452;2023-08-24T06:11:22;18.50;;;10.55;;
21804;SDS011;11064;47.102;15.452;2023-08-24T06:13:48;12.25;;;9.90;;
21804;SDS011;11064;47.102;15.452;2023-08-24T06:16:14;14.82;;;10.07;;
21804;SDS011;11064;47.102;15.452;2023-08-24T06:18:40;20.13;;;10.43;;
21804;SDS011;11064;47.102;15.452;2023-08-24T06:21:06;14.23;;;9.43;;
21804;SDS011;11064;47.102;15.452;2023-08-24T06:23:33;13.73;;;9.82;;
21804;SDS011;11064;47.102;15.452;2023-08-24T06:25:59;15.52;;;9.52;;
21804;SDS011;11064;47.102;15.452;2023-08-24T06:28:26;15.15;;;9.80;;
21804;SDS011;11064;47.102;15.452;2023-08-24T06:30:52;13.77;;;9.15;;
21804;SDS011;11064;47.102;15.452;2023-08-24T06:33:20;15.52;;;9.65;;
21804;SDS011;11064;47.102;15.452;2023-08-24T06:35:46;14.23;;;9.00;;
21804;SDS011;11064;47.102;15.452;2023-08-24T06:38:12;11.38;;;8.90;;
21804;SDS011;11064;47.102;15.452;2023-08-24T06:40:38;12.65;;;9.45;;
21804;SDS011;11064;47.102;15.452;2023-08-24T06:43:04;14.00;;;8.73;;
21804;SDS011;11064;47.102;15.452;2023-08-24T06:45:30;11.02;;;8.98;;
21804;SDS011;11064;47.102;15.452;2023-08-24T06:47:56;12.48;;;8.80;;
21804;SDS011;11064;47.102;15.452;2023-08-24T06:50:22;12.30;;;8.45;;
21804;SDS011;11064;47.102;15.452;2023-08-24T06:52:48;15.82;;;8.23;;
21804;SDS011;11064;47.102;15.452;2023-08-24T06:55:14;13.95;;;8.70;;
21804;SDS011;11064;47.102;15.452;2023-08-24T06:57:40;15.43;;;9.02;;
21804;SDS011;11064;47.102;15.452;2023-08-24T07:00:06;13.10;;;8.50;;
21804;SDS011;11064;47.102;15.452;2023-08-24T07:02:35;13.10;;;8.80;;
21804;SDS011;11064;47.102;15.452;2023-08-24T07:05:02;10.95;;;8.55;;
21804;SDS011;11064;47.102;15.452;2023-08-24T07:07:34;11.50;;;8.07;;
21804;SDS011;11064;47.102;15.452;2023-08-24T07:10:00;10.73;;;8.35;;
21804;SDS011;11064;47.102;15.452;2023-08-24T07:12:26;12.10;;;8.27;;
21804;SDS011;11064;47.102;15.452;2023-08-24T07:14:51;11.25;;;8.27;;
21804;SDS011;11064;47.102;15.452;2023-08-24T07:17:18;11.95;;;7.68;;
21804;SDS011;11064;47.102;15.452;2023-08-24T07:19:44;11.20;;;7.25;;
21804;SDS011;11064;47.102;15.452;2023-08-24T07:22:10;10.20;;;7.45;;
21804;SDS011;11064;47.102;15.452;2023-08-24T07:24:36;11.02;;;7.95;;
21804;SDS011;11064;47.102;15.452;2023-08-24T07:27:02;14.90;;;8.25;;
21804;SDS011;11064;47.102;15.452;2023-08-24T07:29:28;10.52;;;7.50;;
21804;SDS011;11064;47.102;15.452;2023-08-24T07:31:54;12.50;;;7.88;;
21804;SDS011;11064;47.102;15.452;2023-08-24T07:34:20;11.20;;;8.05;;
21804;SDS011;11064;47.102;15.452;2023-08-24T07:36:47;10.32;;;7.53;;
21804;SDS011;11064;47.102;15.452;2023-08-24T07:39:14;12.90;;;7.85;;
21804;SDS011;11064;47.102;15.452;2023-08-24T07:41:43;11.50;;;7.37;;
21804;SDS011;11064;47.102;15.452;2023-08-24T07:44:10;9.82;;;6.93;;
21804;SDS011;11064;47.102;15.452;2023-08-24T07:46:38;9.90;;;6.53;;
21804;SDS011;11064;47.102;15.452;2023-08-24T07:49:05;10.20;;;6.80;;
21804;SDS011;11064;47.102;15.452;2023-08-24T07:51:32;8.88;;;6.45;;
21804;SDS011;11064;47.102;15.452;2023-08-24T07:53:59;9.20;;;6.18;;
21804;SDS011;11064;47.102;15.452;2023-08-24T07:56:25;12.98;;;6.85;;
21804;SDS011;11064;47.102;15.452;2023-08-24T07:58:51;8.30;;;6.13;;
21804;SDS011;11064;47.102;15.452;2023-08-24T08:01:17;12.60;;;6.90;;
21804;SDS011;11064;47.102;15.452;2023-08-24T08:03:45;12.48;;;6.38;;
21804;SDS011;11064;47.102;15.452;2023-08-24T08:06:11;7.63;;;6.50;;
21804;SDS011;11064;47.102;15.452;2023-08-24T08:08:39;8.88;;;6.13;;
21804;SDS011;11064;47.102;15.452;2023-08-24T08:11:04;7.80;;;6.47;;
21804;SDS011;11064;47.102;15.452;2023-08-24T08:13:30;8.50;;;6.70;;
21804;SDS011;11064;47.102;15.452;2023-08-24T08:16:03;11.20;;;6.60;;
21804;SDS011;11064;47.102;15.452;2023-08-24T08:18:34;10.88;;;7.00;;
21804;SDS011;11064;47.102;15.452;2023-08-24T08:21:01;9.57;;;6.90;;
21804;SDS011;11064;47.102;15.452;2023-08-24T08:23:42;10.60;;;6.72;;
21804;SDS011;11064;47.102;15.452;2023-08-24T08:26:10;9.20;;;7.25;;
21804;SDS011;11064;47.102;15.452;2023-08-24T08:28:37;8.07;;;7.05;;
21804;SDS011;11064;47.102;15.452;2023-08-24T08:31:03;9.77;;;6.57;;
21804;SDS011;11064;47.102;15.452;2023-08-24T08:33:29;9.00;;;6.88;;
21804;SDS011;11064;47.102;15.452;2023-08-24T08:35:55;8.02;;;7.22;;
21804;SDS011;11064;47.102;15.452;2023-08-24T08:38:21;11.73;;;6.88;;
21804;SDS011;11064;47.102;15.452;2023-08-24T08:40:51;8.80;;;6.63;;
21804;SDS011;11064;47.102;15.452;2023-08-24T08:43:21;9.60;;;6.68;;
21804;SDS011;11064;47.102;15.452;2023-08-24T08:45:50;10.30;;;6.83;;
21804;SDS011;11064;47.102;15.452;2023-08-24T08:48:17;10.30;;;7.20;;
21804;SDS011;11064;47.102;15.452;2023-08-24T08:50:43;8.05;;;6.60;;
21804;SDS011;11064;47.102;15.452;2023-08-24T08:53:09;12.73;;;7.28;;
21804;SDS011;11064;47.102;15.452;2023-08-24T08:55:35;12.82;;;7.63;;
21804;SDS011;11064;47.102;15.452;2023-08-24T08:58:01;9.82;;;7.57;;
21804;SDS011;11064;47.102;15.452;2023-08-24T09:00:29;8.07;;;6.97;;
21804;SDS011;11064;47.102;15.452;2023-08-24T09:02:57;9.68;;;6.68;;
21804;SDS011;11064;47.102;15.452;2023-08-24T09:05:23;8.35;;;6.90;;
21804;SDS011;11064;47.102;15.452;2023-08-24T09:07:51;11.15;;;7.68;;
21804;SDS011;11064;47.102;15.452;2023-08-24T09:10:19;8.77;;;7.32;;
21804;SDS011;11064;47.102;15.452;2023-08-24T09:12:45;13.02;;;7.00;;
21804;SDS011;11064;47.102;15.452;2023-08-24T09:15:11;8.32;;;7.20;;
21804;SDS011;11064;47.102;15.452;2023-08-24T09:17:42;9.07;;;6.93;;
21804;SDS011;11064;47.102;15.452;2023-08-24T09:20:09;7.93;;;7.07;;
21804;SDS011;11064;47.102;15.452;2023-08-24T09:22:36;10.20;;;7.47;;
21804;SDS011;11064;47.102;15.452;2023-08-24T09:25:08;10.80;;;7.35;;
21804;SDS011;11064;47.102;15.452;2023-08-24T09:27:35;9.70;;;6.97;;
21804;SDS011;11064;47.102;15.452;2023-08-24T09:30:00;9.05;;;6.72;;
21804;SDS011;11064;47.102;15.452;2023-08-24T09:32:32;9.75;;;7.13;;
21804;SDS011;11064;47.102;15.452;2023-08-24T09:35:02;9.70;;;6.85;;
21804;SDS011;11064;47.102;15.452;2023-08-24T09:37:36;8.63;;;6.85;;
21804;SDS011;11064;47.102;15.452;2023-08-24T09:40:06;9.63;;;6.68;;
21804;SDS011;11064;47.102;15.452;2023-08-24T09:42:42;10.65;;;7.00;;
21804;SDS011;11064;47.102;15.452;2023-08-24T09:45:12;9.13;;;7.15;;
21804;SDS011;11064;47.102;15.452;2023-08-24T09:50:09;10.43;;;7.10;;
21804;SDS011;11064;47.102;15.452;2023-08-24T09:52:35;9.00;;;7.13;;
21804;SDS011;11064;47.102;15.452;2023-08-24T09:55:04;7.28;;;6.50;;
21804;SDS011;11064;47.102;15.452;2023-08-24T09:57:37;8.85;;;6.80;;
21804;SDS011;11064;47.102;15.452;2023-08-24T10:00:05;8.88;;;7.00;;
21804;SDS011;11064;47.102;15.452;2023-08-24T10:02:37;8.27;;;6.57;;
21804;SDS011;11064;47.102;15.452;2023-08-24T10:05:13;8.93;;;6.78;;
21804;SDS011;11064;47.102;15.452;2023-08-24T10:07:53;7.95;;;6.65;;
21804;SDS011;11064;47.102;15.452;2023-08-24T10:10:21;9.65;;;6.88;;
21804;SDS011;11064;47.102;15.452;2023-08-24T10:12:56;9.77;;;6.95;;
21804;SDS011;11064;47.102;15.452;2023-08-24T10:15:26;10.82;;;6.60;;
21804;SDS011;11064;47.102;15.452;2023-08-24T10:17:52;9.38;;;6.50;;
21804;SDS011;11064;47.102;15.452;2023-08-24T10:20:20;10.32;;;6.80;;
21804;SDS011;11064;47.102;15.452;2023-08-24T10:22:47;8.63;;;6.80;;
21804;SDS011;11064;47.102;15.452;2023-08-24T10:25:14;12.80;;;6.80;;
21804;SDS011;11064;47.102;15.452;2023-08-24T10:27:45;7.70;;;6.60;;
21804;SDS011;11064;47.102;15.452;2023-08-24T10:30:13;9.20;;;6.55;;
21804;SDS011;11064;47.102;15.452;2023-08-24T10:32:40;8.30;;;6.22;;
21804;SDS011;11064;47.102;15.452;2023-08-24T10:35:07;8.73;;;7.00;;
21804;SDS011;11064;47.102;15.452;2023-08-24T10:37:33;8.60;;;6.60;;
21804;SDS011;11064;47.102;15.452;2023-08-24T10:40:00;9.77;;;6.70;;
21804;SDS011;11064;47.102;15.452;2023-08-24T10:42:26;7.78;;;6.97;;
21804;SDS011;11064;47.102;15.452;2023-08-24T10:44:52;7.30;;;6.30;;
21804;SDS011;11064;47.102;15.452;2023-08-24T10:47:21;8.32;;;6.72;;
21804;SDS011;11064;47.102;15.452;2023-08-24T10:52:24;6.80;;;6.10;;
21804;SDS011;11064;47.102;15.452;2023-08-24T10:54:52;8.48;;;6.82;;
21804;SDS011;11064;47.102;15.452;2023-08-24T10:57:23;8.82;;;6.45;;
21804;SDS011;11064;47.102;15.452;2023-08-24T11:02:31;10.20;;;7.25;;
21804;SDS011;11064;47.102;15.452;2023-08-24T11:08:03;8.63;;;6.50;;
21804;SDS011;11064;47.102;15.452;2023-08-24T11:10:48;7.88;;;6.72;;
21804;SDS011;11064;47.102;15.452;2023-08-24T11:13:17;9.98;;;6.60;;
21804;SDS011;11064;47.102;15.452;2023-08-24T11:15:45;10.38;;;6.60;;
21804;SDS011;11064;47.102;15.452;2023-08-24T11:18:24;10.02;;;6.63;;
21804;SDS011;11064;47.102;15.452;2023-08-24T11:23:22;8.98;;;7.10;;
21804;SDS011;11064;47.102;15.452;2023-08-24T11:25:51;8.68;;;7.38;;
21804;SDS011;11064;47.102;15.452;2023-08-24T11:28:21;9.73;;;6.72;;
21804;SDS011;11064;47.102;15.452;2023-08-24T11:30:49;10.65;;;7.07;;
21804;SDS011;11064;47.102;15.452;2023-08-24T11:33:16;8.98;;;6.70;;
21804;SDS011;11064;47.102;15.452;2023-08-24T11:35:45;8.85;;;6.80;;
21804;SDS011;11064;47.102;15.452;2023-08-24T11:38:12;9.47;;;6.60;;
21804;SDS011;11064;47.102;15.452;2023-08-24T11:40:38;9.10;;;6.00;;
21804;SDS011;11064;47.102;15.452;2023-08-24T11:43:04;11.50;;;6.68;;
21804;SDS011;11064;47.102;15.452;2023-08-24T11:45:31;11.07;;;6.60;;
21804;SDS011;11064;47.102;15.452;2023-08-24T11:47:59;6.80;;;5.88;;
21804;SDS011;11064;47.102;15.452;2023-08-24T11:50:26;9.05;;;5.93;;
21804;SDS011;11064;47.102;15.452;2023-08-24T11:52:52;9.15;;;6.70;;
21804;SDS011;11064;47.102;15.452;2023-08-24T11:55:18;9.30;;;6.57;;
21804;SDS011;11064;47.102;15.452;2023-08-24T11:57:45;9.18;;;6.40;;
21804;SDS011;11064;47.102;15.452;2023-08-24T12:00:11;9.13;;;6.65;;
21804;SDS011;11064;47.102;15.452;2023-08-24T12:02:39;9.00;;;6.65;;
21804;SDS011;11064;47.102;15.452;2023-08-24T12:05:06;9.85;;;6.88;;
21804;SDS011;11064;47.102;15.452;2023-08-24T12:07:33;11.77;;;6.65;;
21804;SDS011;11064;47.102;15.452;2023-08-24T12:10:02;8.88;;;6.93;;
21804;SDS011;11064;47.102;15.452;2023-08-24T12:12:28;8.57;;;6.63;;
21804;SDS011;11064;47.102;15.452;2023-08-24T12:14:54;9.20;;;6.32;;
21804;SDS011;11064;47.102;15.452;2023-08-24T12:17:22;8.68;;;6.50;;
21804;SDS011;11064;47.102;15.452;2023-08-24T12:19:58;8.77;;;6.95;;
21804;SDS011;11064;47.102;15.452;2023-08-24T12:22:26;8.48;;;6.60;;
21804;SDS011;11064;47.102;15.452;2023-08-24T12:24:53;10.20;;;6.90;;
21804;SDS011;11064;47.102;15.452;2023-08-24T12:27:19;7.60;;;6.80;;
21804;SDS011;11064;47.102;15.452;2023-08-24T12:29:49;10.43;;;6.95;;
21804;SDS011;11064;47.102;15.452;2023-08-24T12:32:16;10.63;;;7.00;;
21804;SDS011;11064;47.102;15.452;2023-08-24T12:34:45;10.88;;;7.00;;
21804;SDS011;11064;47.102;15.452;2023-08-24T12:37:11;9.43;;;7.10;;
21804;SDS011;11064;47.102;15.452;2023-08-24T12:39:38;9.32;;;7.05;;
21804;SDS011;11064;47.102;15.452;2023-08-24T12:42:05;7.78;;;6.95;;
21804;SDS011;11064;47.102;15.452;2023-08-24T12:44:31;12.80;;;7.18;;
21804;SDS011;11064;47.102;15.452;2023-08-24T12:47:00;10.48;;;7.32;;
21804;SDS011;11064;47.102;15.452;2023-08-24T12:51:53;14.63;;;7.88;;
21804;SDS011;11064;47.102;15.452;2023-08-24T12:54:19;8.80;;;6.97;;
21804;SDS011;11064;47.102;15.452;2023-08-24T12:56:45;8.38;;;7.20;;
21804;SDS011;11064;47.102;15.452;2023-08-24T12:59:10;9.50;;;7.00;;
21804;SDS011;11064;47.102;15.452;2023-08-24T13:01:37;9.85;;;6.95;;
21804;SDS011;11064;47.102;15.452;2023-08-24T13:04:03;10.40;;;6.90;;
21804;SDS011;11064;47.102;15.452;2023-08-24T13:06:30;9.85;;;7.28;;
21804;SDS011;11064;47.102;15.452;2023-08-24T13:08:56;8.73;;;7.65;;
21804;SDS011;11064;47.102;15.452;2023-08-24T13:11:22;8.90;;;7.50;;
21804;SDS011;11064;47.102;15.452;2023-08-24T13:13:48;9.85;;;7.65;;
21804;SDS011;11064;47.102;15.452;2023-08-24T13:16:14;9.02;;;7.60;;
21804;SDS011;11064;47.102;15.452;2023-08-24T13:18:41;12.60;;;8.75;;
21804;SDS011;11064;47.102;15.452;2023-08-24T13:21:07;9.80;;;7.78;;
21804;SDS011;11064;47.102;15.452;2023-08-24T13:23:33;10.63;;;8.00;;
21804;SDS011;11064;47.102;15.452;2023-08-24T13:25:59;9.82;;;8.15;;
21804;SDS011;11064;47.102;15.452;2023-08-24T13:28:25;10.57;;;8.32;;
21804;SDS011;11064;47.102;15.452;2023-08-24T13:30:51;12.05;;;8.20;;
21804;SDS011;11064;47.102;15.452;2023-08-24T13:33:17;10.73;;;7.85;;
21804;SDS011;11064;47.102;15.452;2023-08-24T13:35:46;10.23;;;8.10;;
21804;SDS011;11064;47.102;15.452;2023-08-24T13:38:12;13.23;;;9.07;;
21804;SDS011;11064;47.102;15.452;2023-08-24T13:40:37;9.70;;;7.75;;
21804;SDS011;11064;47.102;15.452;2023-08-24T13:43:03;11.13;;;8.05;;
21804;SDS011;11064;47.102;15.452;2023-08-24T13:45:30;11.10;;;8.25;;
21804;SDS011;11064;47.102;15.452;2023-08-24T13:47:56;9.63;;;8.30;;
21804;SDS011;11064;47.102;15.452;2023-08-24T13:50:22;17.17;;;9.68;;
21804;SDS011;11064;47.102;15.452;2023-08-24T13:52:49;11.90;;;8.93;;
21804;SDS011;11064;47.102;15.452;2023-08-24T13:55:14;12.15;;;8.48;;
21804;SDS011;11064;47.102;15.452;2023-08-24T13:57:42;11.40;;;8.48;;
21804;SDS011;11064;47.102;15.452;2023-08-24T14:00:08;13.02;;;9.13;;
21804;SDS011;11064;47.102;15.452;2023-08-24T14:02:34;13.02;;;8.52;;
21804;SDS011;11064;47.102;15.452;2023-08-24T14:05:00;10.73;;;8.60;;
21804;SDS011;11064;47.102;15.452;2023-08-24T14:07:26;11.80;;;8.80;;
21804;SDS011;11064;47.102;15.452;2023-08-24T14:09:52;11.60;;;8.82;;
21804;SDS011;11064;47.102;15.452;2023-08-24T14:12:17;13.20;;;9.27;;
21804;SDS011;11064;47.102;15.452;2023-08-24T14:14:43;11.13;;;8.45;;
21804;SDS011;11064;47.102;15.452;2023-08-24T14:17:09;10.07;;;8.95;;
21804;SDS011;11064;47.102;15.452;2023-08-24T14:19:35;13.77;;;9.18;;
21804;SDS011;11064;47.102;15.452;2023-08-24T14:22:00;10.52;;;8.77;;
21804;SDS011;11064;47.102;15.452;2023-08-24T14:24:26;10.80;;;8.93;;
21804;SDS011;11064;47.102;15.452;2023-08-24T14:26:52;10.40;;;8.68;;
21804;SDS011;11064;47.102;15.452;2023-08-24T14:29:18;11.88;;;9.80;;
21804;SDS011;11064;47.102;15.452;2023-08-24T14:31:44;13.18;;;9.40;;
21804;SDS011;11064;47.102;15.452;2023-08-24T14:34:09;12.48;;;8.98;;
21804;SDS011;11064;47.102;15.452;2023-08-24T14:36:35;10.18;;;8.90;;
21804;SDS011;11064;47.102;15.452;2023-08-24T14:39:01;15.20;;;9.98;;
21804;SDS011;11064;47.102;15.452;2023-08-24T14:41:27;10.95;;;9.68;;
21804;SDS011;11064;47.102;15.452;2023-08-24T14:43:53;10.32;;;9.13;;
21804;SDS011;11064;47.102;15.452;2023-08-24T14:46:19;13.20;;;9.57;;
21804;SDS011;11064;47.102;15.452;2023-08-24T14:48:45;11.45;;;9.90;;
21804;SDS011;11064;47.102;15.452;2023-08-24T14:51:10;10.00;;;8.68;;
21804;SDS011;11064;47.102;15.452;2023-08-24T14:53:36;11.27;;;9.18;;
21804;SDS011;11064;47.102;15.452;2023-08-24T14:56:03;9.80;;;8.82;;
21804;SDS011;11064;47.102;15.452;2023-08-24T14:58:29;11.52;;;8.90;;
21804;SDS011;11064;47.102;15.452;2023-08-24T15:00:56;11.13;;;9.32;;
21804;SDS011;11064;47.102;15.452;2023-08-24T15:03:23;12.95;;;8.95;;
21804;SDS011;11064;47.102;15.452;2023-08-24T15:05:56;12.52;;;8.95;;
21804;SDS011;11064;47.102;15.452;2023-08-24T15:08:24;13.20;;;9.75;;
21804;SDS011;11064;47.102;15.452;2023-08-24T15:10:51;12.75;;;9.48;;
21804;SDS011;11064;47.102;15.452;2023-08-24T15:13:19;13.25;;;10.05;;
21804;SDS011;11064;47.102;15.452;2023-08-24T15:15:44;12.82;;;9.73;;
21804;SDS011;11064;47.102;15.452;2023-08-24T15:18:10;10.95;;;9.88;;
21804;SDS011;11064;47.102;15.452;2023-08-24T15:20:36;12.48;;;10.13;;
21804;SDS011;11064;47.102;15.452;2023-08-24T15:23:02;12.57;;;9.95;;
21804;SDS011;11064;47.102;15.452;2023-08-24T15:25:28;11.82;;;9.82;;
21804;SDS011;11064;47.102;15.452;2023-08-24T15:27:54;13.18;;;9.98;;
21804;SDS011;11064;47.102;15.452;2023-08-24T15:30:20;11.05;;;9.95;;
21804;SDS011;11064;47.102;15.452;2023-08-24T15:32:46;12.43;;;10.45;;
21804;SDS011;11064;47.102;15.452;2023-08-24T15:35:12;13.82;;;10.20;;
21804;SDS011;11064;47.102;15.452;2023-08-24T15:37:38;12.00;;;10.25;;
21804;SDS011;11064;47.102;15.452;2023-08-24T15:40:05;11.65;;;9.75;;
21804;SDS011;11064;47.102;15.452;2023-08-24T15:42:31;13.77;;;9.95;;
21804;SDS011;11064;47.102;15.452;2023-08-24T15:44:56;13.00;;;9.70;;
21804;SDS011;11064;47.102;15.452;2023-08-24T15:47:22;14.13;;;10.27;;
21804;SDS011;11064;47.102;15.452;2023-08-24T15:49:48;14.93;;;9.90;;
21804;SDS011;11064;47.102;15.452;2023-08-24T15:52:14;12.63;;;9.77;;
21804;SDS011;11064;47.102;15.452;2023-08-24T15:54:40;11.15;;;9.68;;
21804;SDS011;11064;47.102;15.452;2023-08-24T15:57:05;14.88;;;10.20;;
21804;SDS011;11064;47.102;15.452;2023-08-24T15:59:31;12.48;;;9.88;;
21804;SDS011;11064;47.102;15.452;2023-08-24T16:01:58;15.32;;;10.15;;
21804;SDS011;11064;47.102;15.452;2023-08-24T16:04:24;15.52;;;10.70;;
21804;SDS011;11064;47.102;15.452;2023-08-24T16:06:49;15.60;;;10.40;;
21804;SDS011;11064;47.102;15.452;2023-08-24T16:09:16;14.65;;;10.93;;
21804;SDS011;11064;47.102;15.452;2023-08-24T16:11:42;11.90;;;10.70;;
21804;SDS011;11064;47.102;15.452;2023-08-24T16:14:07;14.50;;;10.70;;
21804;SDS011;11064;47.102;15.452;2023-08-24T16:16:36;14.20;;;10.27;;
21804;SDS011;11064;47.102;15.452;2023-08-24T16:19:02;11.38;;;10.13;;
21804;SDS011;11064;47.102;15.452;2023-08-24T16:21:28;13.25;;;10.68;;
21804;SDS011;11064;47.102;15.452;2023-08-24T16:23:56;12.98;;;10.43;;
21804;SDS011;11064;47.102;15.452;2023-08-24T16:26:22;12.73;;;10.27;;
21804;SDS011;11064;47.102;15.452;2023-08-24T16:28:49;14.98;;;10.18;;
21804;SDS011;11064;47.102;15.452;2023-08-24T16:31:15;13.85;;;10.38;;
21804;SDS011;11064;47.102;15.452;2023-08-24T16:33:41;12.75;;;10.95;;
21804;SDS011;11064;47.102;15.452;2023-08-24T16:36:07;13.38;;;10.27;;
21804;SDS011;11064;47.102;15.452;2023-08-24T16:38:33;13.18;;;11.27;;
21804;SDS011;11064;47.102;15.452;2023-08-24T16:41:00;13.05;;;11.35;;
21804;SDS011;11064;47.102;15.452;2023-08-24T16:43:26;14.50;;;11.02;;
21804;SDS011;11064;47.102;15.452;2023-08-24T16:45:51;14.60;;;11.13;;
21804;SDS011;11064;47.102;15.452;2023-08-24T16:48:17;15.60;;;11.30;;
21804;SDS011;11064;47.102;15.452;2023-08-24T16:50:43;14.23;;;11.80;;
21804;SDS011;11064;47.102;15.452;2023-08-24T16:53:09;13.85;;;11.60;;
21804;SDS011;11064;47.102;15.452;2023-08-24T16:55:35;13.25;;;11.60;;
21804;SDS011;11064;47.102;15.452;2023-08-24T16:58:01;13.23;;;11.32;;
21804;SDS011;11064;47.102;15.452;2023-08-24T17:00:27;14.38;;;11.80;;
21804;SDS011;11064;47.102;15.452;2023-08-24T17:02:54;14.82;;;11.40;;
21804;SDS011;11064;47.102;15.452;2023-08-24T17:05:20;14.52;;;11.90;;
21804;SDS011;11064;47.102;15.452;2023-08-24T17:08:03;13.85;;;11.40;;
21804;SDS011;11064;47.102;15.452;2023-08-24T17:10:31;14.25;;;11.32;;
21804;SDS011;11064;47.102;15.452;2023-08-24T17:12:59;14.32;;;11.15;;
21804;SDS011;11064;47.102;15.452;2023-08-24T17:15:25;12.18;;;10.90;;
21804;SDS011;11064;47.102;15.452;2023-08-24T17:17:51;12.32;;;11.02;;
21804;SDS011;11064;47.102;15.452;2023-08-24T17:20:18;14.35;;;11.25;;
21804;SDS011;11064;47.102;15.452;2023-08-24T17:22:45;14.32;;;11.32;;
21804;SDS011;11064;47.102;15.452;2023-08-24T17:25:11;12.52;;;10.88;;
21804;SDS011;11064;47.102;15.452;2023-08-24T17:27:37;14.82;;;11.73;;
21804;SDS011;11064;47.102;15.452;2023-08-24T17:30:04;14.43;;;11.93;;
21804;SDS011;11064;47.102;15.452;2023-08-24T17:32:34;17.83;;;11.68;;
21804;SDS011;11064;47.102;15.452;2023-08-24T17:35:00;14.90;;;11.63;;
21804;SDS011;11064;47.102;15.452;2023-08-24T17:37:27;13.95;;;12.30;;
21804;SDS011;11064;47.102;15.452;2023-08-24T17:39:53;16.08;;;11.63;;
21804;SDS011;11064;47.102;15.452;2023-08-24T17:42:19;13.93;;;11.93;;
21804;SDS011;11064;47.102;15.452;2023-08-24T17:44:45;13.23;;;11.82;;
21804;SDS011;11064;47.102;15.452;2023-08-24T17:47:11;15.63;;;12.60;;
21804;SDS011;11064;47.102;15.452;2023-08-24T17:49:37;14.20;;;12.05;;
21804;SDS011;11064;47.102;15.452;2023-08-24T17:52:03;18.45;;;12.18;;
21804;SDS011;11064;47.102;15.452;2023-08-24T17:54:31;18.00;;;12.63;;
21804;SDS011;11064;47.102;15.452;2023-08-24T17:57:00;15.48;;;12.60;;
21804;SDS011;11064;47.102;15.452;2023-08-24T17:59:26;17.00;;;12.90;;
21804;SDS011;11064;47.102;15.452;2023-08-24T18:01:52;17.33;;;12.77;;
21804;SDS011;11064;47.102;15.452;2023-08-24T18:04:18;15.90;;;12.65;;
21804;SDS011;11064;47.102;15.452;2023-08-24T18:06:44;14.93;;;11.95;;
21804;SDS011;11064;47.102;15.452;2023-08-24T18:09:11;14.15;;;12.60;;
21804;SDS011;11064;47.102;15.452;2023-08-24T18:11:37;15.18;;;12.38;;
21804;SDS011;11064;47.102;15.452;2023-08-24T18:14:03;14.30;;;12.77;;
21804;SDS011;11064;47.102;15.452;2023-08-24T18:16:29;15.80;;;12.73;;
21804;SDS011;11064;47.102;15.452;2023-08-24T18:18:55;14.30;;;12.80;;
21804;SDS011;11064;47.102;15.452;2023-08-24T18:21:22;16.05;;;12.60;;
21804;SDS011;11064;47.102;15.452;2023-08-24T18:23:49;14.52;;;12.93;;
21804;SDS011;11064;47.102;15.452;2023-08-24T18:26:16;15.35;;;12.63;;
21804;SDS011;11064;47.102;15.452;2023-08-24T18:28:42;16.33;;;12.77;;
21804;SDS011;11064;47.102;15.452;2023-08-24T18:31:08;17.90;;;13.35;;
21804;SDS011;11064;47.102;15.452;2023-08-24T18:33:34;14.23;;;12.65;;
21804;SDS011;11064;47.102;15.452;2023-08-24T18:36:01;13.60;;;12.10;;